Time;durP1;ratioP1;P1;durP2;ratioP2;P2;SDS_P1;SDS_P2;PMS_P1;PMS_P2;Temp;Humidity;BMP_temperature;BMP_pressure;BME280_temperature;BME280_humidity;BME280_pressure;Samples;Min_cycle;Max_cycle;Signal;HPM_P1;HPM_P2
2023/06/05 00:00:55;;;;;;;5.88;3.63;;;;;;;;;;5066210;28;20133;-62
2023/06/05 00:03:21;;;;;;;5.70;3.80;;;;;;;;;;5067749;28;20394;-62
2023/06/05 00:05:47;;;;;;;4.88;3.38;;;;;;;;;;5075215;28;20050;-63
2023/06/05 00:08:14;;;;;;;5.78;4.10;;;;;;;;;;5074235;28;20036;-62
2023/06/05 00:10:40;;;;;;;6.60;3.90;;;;;;;;;;5069284;28;20040;-62
2023/06/05 00:13:06;;;;;;;4.95;3.80;;;;;;;;;;5071653;28;20055;-62
2023/06/05 00:15:35;;;;;;;8.45;3.45;;;;;;;;;;5069807;28;20052;-62
2023/06/05 00:18:03;;;;;;;9.90;4.32;;;;;;;;;;5065422;28;20048;-62
2023/06/05 00:20:30;;;;;;;5.95;4.25;;;;;;;;;;5068009;28;20063;-62
2023/06/05 00:22:56;;;;;;;7.35;4.25;;;;;;;;;;5073827;28;20042;-61
2023/06/05 00:25:22;;;;;;;8.38;4.75;;;;;;;;;;5076526;28;20048;-62
2023/06/05 00:27:48;;;;;;;9.60;4.13;;;;;;;;;;5067435;28;20044;-62
2023/06/05 00:30:14;;;;;;;5.22;3.65;;;;;;;;;;5065991;28;20384;-62
2023/06/05 00:32:42;;;;;;;5.78;3.97;;;;;;;;;;5065388;28;20500;-62
2023/06/05 00:35:09;;;;;;;6.25;3.83;;;;;;;;;;5105001;28;20098;-62
2023/06/05 00:37:37;;;;;;;4.88;3.22;;;;;;;;;;5069614;28;20044;-62
2023/06/05 00:40:03;;;;;;;5.13;3.42;;;;;;;;;;5043324;28;20475;-62
2023/06/05 00:42:29;;;;;;;4.90;3.35;;;;;;;;;;5073463;28;20079;-62
2023/06/05 00:44:55;;;;;;;6.53;3.42;;;;;;;;;;5071301;28;20129;-62
2023/06/05 00:47:22;;;;;;;5.07;3.03;;;;;;;;;;5066412;28;20499;-63
2023/06/05 00:49:48;;;;;;;6.63;3.50;;;;;;;;;;5049452;28;20087;-61
2023/06/05 00:52:15;;;;;;;4.47;2.92;;;;;;;;;;5071332;28;20036;-61
2023/06/05 00:54:41;;;;;;;3.47;2.58;;;;;;;;;;5053075;28;20040;-62
2023/06/05 00:57:09;;;;;;;5.70;3.28;;;;;;;;;;5071105;28;20139;-62
2023/06/05 00:59:36;;;;;;;4.60;2.47;;;;;;;;;;5102171;28;20101;-62
2023/06/05 01:02:02;;;;;;;4.35;2.70;;;;;;;;;;5079889;28;20044;-62
2023/06/05 01:04:29;;;;;;;6.55;2.60;;;;;;;;;;5070278;28;20036;-62
2023/06/05 01:06:57;;;;;;;4.00;2.90;;;;;;;;;;5071887;28;20558;-62
2023/06/05 01:09:24;;;;;;;4.05;2.47;;;;;;;;;;5076153;28;20040;-62
2023/06/05 01:11:50;;;;;;;6.25;3.10;;;;;;;;;;5082355;28;20044;-62
2023/06/05 01:14:22;;;;;;;4.25;2.42;;;;;;;;;;5074673;28;20360;-62
2023/06/05 01:16:53;;;;;;;4.43;2.38;;;;;;;;;;5070106;28;20150;-62
2023/06/05 01:19:20;;;;;;;7.47;2.40;;;;;;;;;;5070188;28;20041;-63
2023/06/05 01:21:46;;;;;;;5.63;2.50;;;;;;;;;;5074725;28;20062;-63
2023/06/05 01:24:13;;;;;;;5.45;3.10;;;;;;;;;;5087793;28;20029;-62
2023/06/05 01:26:42;;;;;;;4.45;2.10;;;;;;;;;;5073100;28;20187;-62
2023/06/05 01:29:11;;;;;;;4.18;2.42;;;;;;;;;;5068881;28;20048;-64
2023/06/05 01:31:39;;;;;;;4.78;2.60;;;;;;;;;;5073701;28;20380;-62
2023/06/05 01:34:08;;;;;;;6.03;2.85;;;;;;;;;;5068579;28;20051;-63
2023/06/05 01:36:36;;;;;;;3.28;1.98;;;;;;;;;;5068181;28;20061;-62
2023/06/05 01:39:04;;;;;;;4.38;2.45;;;;;;;;;;5070082;28;20036;-63
2023/06/05 01:41:30;;;;;;;4.00;2.25;;;;;;;;;;5073989;28;20106;-63
2023/06/05 01:43:57;;;;;;;4.15;2.05;;;;;;;;;;5078336;28;20056;-63
2023/06/05 01:46:23;;;;;;;3.47;2.10;;;;;;;;;;5070858;28;20107;-63
2023/06/05 01:48:51;;;;;;;2.97;2.00;;;;;;;;;;5072305;28;20530;-63
2023/06/05 01:51:17;;;;;;;4.22;2.70;;;;;;;;;;5068861;28;20106;-62
2023/06/05 01:53:43;;;;;;;5.38;2.63;;;;;;;;;;5077213;28;20402;-63
2023/06/05 01:56:10;;;;;;;4.15;2.42;;;;;;;;;;5074561;28;20055;-62
2023/06/05 01:58:36;;;;;;;4.65;2.30;;;;;;;;;;5072841;28;20044;-63
2023/06/05 02:01:03;;;;;;;4.45;2.53;;;;;;;;;;5071978;28;20040;-63
2023/06/05 02:03:29;;;;;;;6.07;2.90;;;;;;;;;;5067641;28;20050;-62
2023/06/05 02:05:55;;;;;;;3.42;2.40;;;;;;;;;;5082629;28;20349;-63
2023/06/05 02:08:22;;;;;;;4.07;2.78;;;;;;;;;;5068105;28;20040;-62
2023/06/05 02:10:52;;;;;;;4.00;2.70;;;;;;;;;;5073054;28;20119;-62
2023/06/05 02:13:19;;;;;;;8.27;4.10;;;;;;;;;;5052069;28;20393;-61
2023/06/05 02:15:46;;;;;;;4.82;3.00;;;;;;;;;;5073714;28;20207;-62
2023/06/05 02:18:13;;;;;;;4.25;2.50;;;;;;;;;;5073437;28;20470;-62
2023/06/05 02:20:41;;;;;;;6.20;3.90;;;;;;;;;;5066930;28;20055;-61
2023/06/05 02:23:08;;;;;;;4.85;3.42;;;;;;;;;;5058976;28;20414;-62
2023/06/05 02:25:34;;;;;;;6.55;3.45;;;;;;;;;;5076054;28;20467;-62
2023/06/05 02:28:00;;;;;;;5.60;4.25;;;;;;;;;;5068806;28;20178;-62
2023/06/05 02:30:26;;;;;;;6.97;4.28;;;;;;;;;;5072986;28;20139;-61
2023/06/05 02:33:00;;;;;;;6.65;4.32;;;;;;;;;;5078144;28;20184;-61
2023/06/05 02:35:26;;;;;;;6.03;4.32;;;;;;;;;;5070651;28;20139;-63
2023/06/05 02:37:53;;;;;;;7.63;4.63;;;;;;;;;;5067602;28;20036;-62
2023/06/05 02:40:19;;;;;;;10.05;4.90;;;;;;;;;;5070552;28;20372;-62
2023/06/05 02:42:45;;;;;;;6.60;4.45;;;;;;;;;;5081174;28;20450;-61
2023/06/05 02:45:11;;;;;;;6.88;4.70;;;;;;;;;;5065615;28;20041;-61
2023/06/05 02:47:37;;;;;;;7.60;5.32;;;;;;;;;;5097934;28;20048;-61
2023/06/05 02:50:04;;;;;;;7.97;4.32;;;;;;;;;;5080374;28;20052;-62
2023/06/05 02:52:35;;;;;;;9.35;4.15;;;;;;;;;;5099581;28;20592;-62
2023/06/05 02:55:02;;;;;;;5.65;4.15;;;;;;;;;;5061832;28;20044;-62
2023/06/05 02:57:28;;;;;;;6.18;3.97;;;;;;;;;;5063719;28;20043;-62
2023/06/05 02:59:55;;;;;;;9.38;5.10;;;;;;;;;;5068723;28;20751;-61
2023/06/05 03:02:22;;;;;;;7.15;4.45;;;;;;;;;;5073241;28;20515;-62
2023/06/05 03:04:53;;;;;;;8.27;5.22;;;;;;;;;;5098365;28;20079;-62
2023/06/05 03:07:19;;;;;;;7.45;4.97;;;;;;;;;;5083106;28;20101;-61
2023/06/05 03:09:45;;;;;;;7.03;4.93;;;;;;;;;;5066251;28;20443;-62
2023/06/05 03:12:12;;;;;;;8.40;5.22;;;;;;;;;;5068294;28;20372;-61
2023/06/05 03:14:39;;;;;;;6.28;4.63;;;;;;;;;;5067272;28;20060;-62
2023/06/05 03:17:05;;;;;;;8.65;4.72;;;;;;;;;;5049264;28;20512;-62
2023/06/05 03:19:31;;;;;;;6.93;3.75;;;;;;;;;;5072214;28;20537;-62
2023/06/05 03:21:58;;;;;;;6.32;4.35;;;;;;;;;;5095339;28;20502;-62
2023/06/05 03:24:24;;;;;;;5.47;3.58;;;;;;;;;;5067221;28;20142;-62
2023/06/05 03:26:50;;;;;;;5.88;3.80;;;;;;;;;;5066485;28;20505;-62
2023/06/05 03:29:17;;;;;;;6.55;4.25;;;;;;;;;;5069243;28;20223;-62
2023/06/05 03:31:43;;;;;;;4.80;3.33;;;;;;;;;;5038392;28;20036;-63
2023/06/05 03:34:10;;;;;;;5.40;3.47;;;;;;;;;;5068383;28;20040;-62
2023/06/05 03:36:39;;;;;;;6.05;3.60;;;;;;;;;;5066397;28;20056;-62
2023/06/05 03:39:05;;;;;;;6.13;3.83;;;;;;;;;;5081193;28;20667;-62
2023/06/05 03:41:31;;;;;;;4.32;3.22;;;;;;;;;;5065104;28;20036;-62
2023/06/05 03:43:58;;;;;;;5.55;3.30;;;;;;;;;;5083881;28;20393;-62
2023/06/05 03:46:24;;;;;;;4.07;3.05;;;;;;;;;;5064866;28;20051;-62
2023/06/05 03:48:58;;;;;;;7.05;3.20;;;;;;;;;;5057016;28;20491;-62
2023/06/05 03:51:29;;;;;;;4.05;3.33;;;;;;;;;;5090743;28;20093;-62
2023/06/05 03:53:57;;;;;;;5.78;3.45;;;;;;;;;;5066906;28;20499;-61
2023/06/05 03:56:28;;;;;;;4.07;2.70;;;;;;;;;;5066422;28;20394;-61
2023/06/05 03:58:54;;;;;;;4.70;2.30;;;;;;;;;;5068680;28;20201;-62
2023/06/05 04:01:20;;;;;;;4.03;2.42;;;;;;;;;;5067294;28;20075;-62
2023/06/05 04:03:46;;;;;;;3.72;2.35;;;;;;;;;;5067022;28;20545;-61
2023/06/05 04:06:12;;;;;;;5.30;2.70;;;;;;;;;;5075572;28;20076;-61
2023/06/05 04:08:38;;;;;;;4.30;2.50;;;;;;;;;;5103897;28;20045;-61
2023/06/05 04:11:05;;;;;;;4.60;2.45;;;;;;;;;;5068201;28;20071;-62
2023/06/05 04:13:31;;;;;;;4.13;2.15;;;;;;;;;;5066638;28;20124;-62
2023/06/05 04:15:57;;;;;;;2.67;1.90;;;;;;;;;;5098355;28;20049;-62
2023/06/05 04:18:24;;;;;;;3.63;2.38;;;;;;;;;;5074752;28;20071;-62
2023/06/05 04:20:50;;;;;;;4.10;1.95;;;;;;;;;;5071059;28;20104;-62
2023/06/05 04:23:16;;;;;;;3.80;2.03;;;;;;;;;;5063876;28;20036;-61
2023/06/05 04:25:45;;;;;;;2.63;1.60;;;;;;;;;;5067731;28;20046;-62
2023/06/05 04:28:11;;;;;;;2.58;2.03;;;;;;;;;;5046350;28;20037;-61
2023/06/05 04:30:37;;;;;;;5.30;2.28;;;;;;;;;;5067031;28;20072;-63
2023/06/05 04:33:06;;;;;;;3.28;2.55;;;;;;;;;;5059810;28;20131;-62
2023/06/05 04:35:33;;;;;;;1.75;1.42;;;;;;;;;;5065686;28;20045;-62
2023/06/05 04:38:00;;;;;;;4.05;2.20;;;;;;;;;;5069557;28;20037;-62
2023/06/05 04:40:26;;;;;;;2.42;1.75;;;;;;;;;;5067782;28;20498;-62
2023/06/05 04:42:54;;;;;;;4.70;2.40;;;;;;;;;;5065665;28;20040;-62
2023/06/05 04:45:21;;;;;;;4.70;2.60;;;;;;;;;;5067024;28;20056;-62
2023/06/05 04:47:47;;;;;;;4.10;2.45;;;;;;;;;;5076408;28;20044;-63
2023/06/05 04:50:28;;;;;;;3.80;2.25;;;;;;;;;;5070857;28;20135;-62
2023/06/05 04:52:54;;;;;;;3.60;2.05;;;;;;;;;;5060685;28;20101;-62
2023/06/05 04:55:20;;;;;;;4.70;2.20;;;;;;;;;;5075129;28;20518;-62
2023/06/05 04:57:48;;;;;;;6.25;2.33;;;;;;;;;;5071301;28;20303;-61
2023/06/05 05:00:17;;;;;;;2.78;1.90;;;;;;;;;;5066148;28;20372;-62
2023/06/05 05:02:43;;;;;;;3.63;2.35;;;;;;;;;;5066437;28;20032;-62
2023/06/05 05:05:13;;;;;;;5.20;1.92;;;;;;;;;;5062413;28;20144;-62
2023/06/05 05:07:40;;;;;;;3.85;2.30;;;;;;;;;;5070241;28;20442;-62
2023/06/05 05:10:08;;;;;;;4.30;2.22;;;;;;;;;;5067812;28;20079;-65
2023/06/05 05:12:34;;;;;;;4.32;1.83;;;;;;;;;;5068284;28;20115;-62
2023/06/05 05:15:00;;;;;;;4.65;2.05;;;;;;;;;;5064666;28;20056;-62
2023/06/05 05:17:26;;;;;;;4.28;2.50;;;;;;;;;;5067346;28;20067;-62
2023/06/05 05:19:52;;;;;;;5.78;2.05;;;;;;;;;;5068018;28;20040;-62
2023/06/05 05:22:19;;;;;;;3.83;2.30;;;;;;;;;;5056670;28;20097;-62
2023/06/05 05:24:45;;;;;;;3.33;2.05;;;;;;;;;;5069308;28;20044;-63
2023/06/05 05:27:11;;;;;;;3.95;1.98;;;;;;;;;;5045517;28;20136;-61
2023/06/05 05:29:37;;;;;;;2.95;1.80;;;;;;;;;;5066554;28;20464;-61
2023/06/05 05:32:05;;;;;;;2.85;1.90;;;;;;;;;;5065675;28;20094;-61
2023/06/05 05:34:31;;;;;;;4.18;1.88;;;;;;;;;;5067108;28;20070;-61
2023/06/05 05:36:57;;;;;;;3.42;2.22;;;;;;;;;;5046415;28;20048;-62
2023/06/05 05:39:24;;;;;;;3.63;2.38;;;;;;;;;;5068175;28;20036;-61
2023/06/05 05:41:50;;;;;;;5.25;2.28;;;;;;;;;;5071404;28;20048;-62
2023/06/05 05:44:16;;;;;;;3.92;1.65;;;;;;;;;;5071583;28;20033;-62
2023/06/05 05:46:42;;;;;;;3.47;2.08;;;;;;;;;;5068960;28;20128;-61
2023/06/05 05:49:08;;;;;;;3.90;1.83;;;;;;;;;;5072130;28;20044;-61
2023/06/05 05:51:34;;;;;;;6.22;2.50;;;;;;;;;;5074309;28;20040;-61
2023/06/05 05:54:00;;;;;;;3.00;2.10;;;;;;;;;;5070955;28;20326;-62
2023/06/05 05:56:26;;;;;;;3.85;2.42;;;;;;;;;;5069757;28;20040;-61
2023/06/05 05:58:52;;;;;;;4.40;2.30;;;;;;;;;;5076717;28;20163;-61
2023/06/05 06:01:19;;;;;;;5.93;2.78;;;;;;;;;;5068568;28;20043;-61
2023/06/05 06:03:45;;;;;;;4.55;2.22;;;;;;;;;;5067621;28;20043;-61
2023/06/05 06:06:12;;;;;;;3.53;2.22;;;;;;;;;;5075020;28;20264;-61
2023/06/05 06:08:38;;;;;;;3.70;2.20;;;;;;;;;;5075597;28;20041;-63
2023/06/05 06:11:06;;;;;;;4.82;2.92;;;;;;;;;;5068312;28;20033;-62
2023/06/05 06:13:35;;;;;;;3.72;2.38;;;;;;;;;;5077833;28;20043;-61
2023/06/05 06:16:02;;;;;;;5.25;2.75;;;;;;;;;;5073308;28;20496;-62
2023/06/05 06:18:28;;;;;;;4.70;2.97;;;;;;;;;;5050241;28;20561;-64
2023/06/05 06:20:55;;;;;;;3.78;2.60;;;;;;;;;;5057791;28;20123;-62
2023/06/05 06:23:21;;;;;;;5.00;2.50;;;;;;;;;;5096313;27;20048;-61
2023/06/05 06:25:47;;;;;;;4.10;2.53;;;;;;;;;;5066515;28;20041;-62
2023/06/05 06:28:13;;;;;;;4.80;2.70;;;;;;;;;;5048856;28;20040;-61
2023/06/05 06:30:39;;;;;;;8.10;3.38;;;;;;;;;;5066264;28;20058;-62
2023/06/05 06:33:05;;;;;;;10.20;3.88;;;;;;;;;;5063745;28;20044;-61
2023/06/05 06:35:31;;;;;;;6.38;3.00;;;;;;;;;;5065940;28;20105;-61
2023/06/05 06:37:58;;;;;;;5.38;2.83;;;;;;;;;;5068544;28;20055;-62
2023/06/05 06:40:25;;;;;;;7.18;3.13;;;;;;;;;;5069682;28;20036;-62
2023/06/05 06:42:51;;;;;;;5.28;3.15;;;;;;;;;;5079297;28;20039;-61
2023/06/05 06:45:17;;;;;;;5.07;3.38;;;;;;;;;;5071280;28;20093;-62
2023/06/05 06:47:44;;;;;;;6.15;3.08;;;;;;;;;;5066066;28;20085;-61
2023/06/05 06:50:10;;;;;;;5.55;3.22;;;;;;;;;;5066387;28;20440;-61
2023/06/05 06:52:36;;;;;;;7.43;4.13;;;;;;;;;;5054886;28;20036;-61
2023/06/05 06:55:03;;;;;;;8.02;3.22;;;;;;;;;;5066043;28;20071;-61
2023/06/05 06:57:29;;;;;;;6.57;3.30;;;;;;;;;;5065677;28;20102;-61
2023/06/05 06:59:55;;;;;;;8.15;3.15;;;;;;;;;;5064480;28;20606;-62
2023/06/05 07:02:24;;;;;;;7.43;3.00;;;;;;;;;;5067726;28;20032;-62
2023/06/05 07:04:50;;;;;;;15.98;3.03;;;;;;;;;;5060994;28;20043;-61
2023/06/05 07:07:17;;;;;;;6.03;3.45;;;;;;;;;;5097561;28;20048;-62
2023/06/05 07:09:46;;;;;;;12.05;3.10;;;;;;;;;;5068557;28;20043;-62
2023/06/05 07:12:13;;;;;;;4.38;2.90;;;;;;;;;;5068989;28;20051;-63
2023/06/05 07:14:41;;;;;;;6.18;3.53;;;;;;;;;;5058767;28;20356;-62
2023/06/05 07:17:08;;;;;;;4.30;2.88;;;;;;;;;;5080255;28;20074;-63
2023/06/05 07:19:38;;;;;;;8.00;3.22;;;;;;;;;;5048148;28;20113;-62
2023/06/05 07:22:05;;;;;;;4.57;3.05;;;;;;;;;;5059520;28;20479;-62
2023/06/05 07:24:32;;;;;;;7.00;3.95;;;;;;;;;;5064912;28;20128;-62
2023/06/05 07:27:00;;;;;;;5.72;3.08;;;;;;;;;;5068450;28;20106;-62
2023/06/05 07:29:26;;;;;;;5.45;3.20;;;;;;;;;;5069217;28;20119;-62
2023/06/05 07:31:53;;;;;;;4.90;3.30;;;;;;;;;;5080867;28;20128;-62
2023/06/05 07:34:20;;;;;;;6.53;2.92;;;;;;;;;;5069475;28;20043;-61
2023/06/05 07:36:47;;;;;;;6.50;2.90;;;;;;;;;;5066681;28;20040;-61
2023/06/05 07:39:14;;;;;;;4.13;3.00;;;;;;;;;;5068572;28;20588;-61
2023/06/05 07:41:40;;;;;;;5.50;3.30;;;;;;;;;;5057271;28;20052;-64
2023/06/05 07:44:10;;;;;;;6.05;3.22;;;;;;;;;;5068835;28;20051;-62
2023/06/05 07:46:37;;;;;;;6.57;3.60;;;;;;;;;;5067055;28;20041;-62
2023/06/05 07:49:03;;;;;;;6.82;3.55;;;;;;;;;;5062105;28;20040;-62
2023/06/05 07:51:33;;;;;;;4.97;2.80;;;;;;;;;;5068867;28;20036;-62
2023/06/05 07:54:00;;;;;;;10.63;2.92;;;;;;;;;;5066921;28;20111;-61
2023/06/05 07:56:26;;;;;;;6.85;2.65;;;;;;;;;;5076365;28;20052;-62
2023/06/05 07:58:52;;;;;;;4.80;3.45;;;;;;;;;;5069187;28;20048;-62
2023/06/05 08:01:20;;;;;;;5.70;3.08;;;;;;;;;;5069670;28;20050;-62
2023/06/05 08:03:46;;;;;;;5.00;2.75;;;;;;;;;;5066892;28;20349;-62
2023/06/05 08:06:13;;;;;;;5.43;3.10;;;;;;;;;;5065849;28;20058;-62
2023/06/05 08:08:39;;;;;;;4.38;2.90;;;;;;;;;;5065298;28;20393;-61
2023/06/05 08:11:05;;;;;;;3.67;2.88;;;;;;;;;;5067290;28;20040;-62
2023/06/05 08:13:31;;;;;;;5.80;2.65;;;;;;;;;;5074303;28;20037;-62
2023/06/05 08:15:57;;;;;;;4.82;2.88;;;;;;;;;;5072295;28;20059;-62
2023/06/05 08:18:24;;;;;;;11.55;3.35;;;;;;;;;;5049828;28;20115;-62
2023/06/05 08:20:50;;;;;;;4.63;3.30;;;;;;;;;;5070476;28;20510;-62
2023/06/05 08:23:16;;;;;;;4.35;2.33;;;;;;;;;;5072465;28;20083;-62
2023/06/05 08:25:43;;;;;;;5.15;3.05;;;;;;;;;;5031314;28;20067;-62
2023/06/05 08:28:09;;;;;;;4.20;2.80;;;;;;;;;;5072145;28;20129;-61
2023/06/05 08:30:35;;;;;;;4.32;2.40;;;;;;;;;;5072172;28;20131;-62
2023/06/05 08:33:02;;;;;;;4.32;2.83;;;;;;;;;;5065662;28;20040;-62
2023/06/05 08:35:29;;;;;;;9.27;2.92;;;;;;;;;;5069826;28;20049;-62
2023/06/05 08:37:58;;;;;;;5.63;3.03;;;;;;;;;;5067231;28;20243;-62
2023/06/05 08:40:28;;;;;;;7.95;2.90;;;;;;;;;;5062983;28;20071;-62
2023/06/05 08:42:54;;;;;;;3.40;2.60;;;;;;;;;;5070175;28;20104;-61
2023/06/05 08:45:20;;;;;;;5.57;2.97;;;;;;;;;;5068778;28;20416;-61
2023/06/05 08:47:50;;;;;;;3.47;2.80;;;;;;;;;;5066086;28;20527;-62
2023/06/05 08:50:16;;;;;;;4.22;2.53;;;;;;;;;;5082439;28;20040;-62
2023/06/05 08:52:43;;;;;;;4.13;2.47;;;;;;;;;;5082318;28;20047;-61
2023/06/05 08:55:10;;;;;;;6.97;2.75;;;;;;;;;;5077523;28;20123;-62
2023/06/05 08:57:39;;;;;;;8.98;3.33;;;;;;;;;;5065311;28;20048;-62
2023/06/05 09:00:10;;;;;;;4.78;2.67;;;;;;;;;;5066453;28;20127;-62
2023/06/05 09:02:38;;;;;;;7.85;3.22;;;;;;;;;;5075508;28;20119;-62
2023/06/05 09:05:04;;;;;;;6.22;2.95;;;;;;;;;;5068943;28;20196;-62
2023/06/05 09:07:31;;;;;;;6.75;3.10;;;;;;;;;;5071197;28;20063;-63
2023/06/05 09:09:57;;;;;;;4.20;2.83;;;;;;;;;;5066015;28;20037;-63
2023/06/05 09:12:25;;;;;;;4.43;3.03;;;;;;;;;;5064763;28;20444;-63
2023/06/05 09:14:52;;;;;;;6.53;3.67;;;;;;;;;;5047683;28;20060;-63
2023/06/05 09:17:18;;;;;;;5.57;3.47;;;;;;;;;;5101668;27;20040;-62
2023/06/05 09:19:47;;;;;;;4.47;3.25;;;;;;;;;;5074340;28;20036;-63
2023/06/05 09:22:16;;;;;;;7.88;3.50;;;;;;;;;;5076248;28;20036;-62
2023/06/05 09:24:43;;;;;;;6.13;3.42;;;;;;;;;;5070710;28;20495;-62
2023/06/05 09:27:16;;;;;;;5.25;3.25;;;;;;;;;;5067791;28;20239;-62
2023/06/05 09:29:45;;;;;;;5.70;3.83;;;;;;;;;;5071676;28;20375;-62
2023/06/05 09:32:14;;;;;;;6.45;3.80;;;;;;;;;;5056114;28;20495;-62
2023/06/05 09:34:41;;;;;;;4.45;2.88;;;;;;;;;;5071548;28;20491;-63
2023/06/05 09:37:08;;;;;;;4.20;2.67;;;;;;;;;;5070651;28;20052;-63
2023/06/05 09:39:35;;;;;;;6.93;3.58;;;;;;;;;;5073588;28;20036;-63
2023/06/05 09:42:01;;;;;;;4.30;2.75;;;15.50;99.90;;;;;;5067654;28;20036;-62
2023/06/05 09:44:29;;;;;;;4.75;3.08;;;;;;;;;;5067039;28;20113;-63
2023/06/05 09:46:55;;;;;;;4.28;3.40;;;;;;;;;;5074844;28;20052;-63
2023/06/05 09:49:22;;;;;;;4.82;2.95;;;;;;;;;;5072590;28;20089;-63
2023/06/05 09:51:48;;;;;;;5.53;2.78;;;;;;;;;;5075245;28;20056;-63
2023/06/05 09:54:15;;;;;;;5.35;3.00;;;;;;;;;;5071063;28;20036;-62
2023/06/05 09:56:41;;;;;;;5.97;3.10;;;;;;;;;;5068997;28;20051;-62
2023/06/05 09:59:09;;;;;;;4.40;3.38;;;;;;;;;;5068279;28;20032;-62
2023/06/05 10:01:41;;;;;;;4.78;2.70;;;;;;;;;;5067518;28;20506;-63
2023/06/05 10:04:09;;;;;;;4.88;2.65;;;;;;;;;;5071153;28;20064;-62
2023/06/05 10:06:36;;;;;;;7.90;3.20;;;;;;;;;;5070093;28;20139;-62
2023/06/05 10:09:03;;;;;;;4.20;2.78;;;;;;;;;;5056811;28;20427;-62
2023/06/05 10:11:30;;;;;;;6.13;2.78;;;;;;;;;;5069521;28;20521;-62
2023/06/05 10:13:59;;;;;;;4.55;2.70;;;;;;;;;;5078524;28;20122;-62
2023/06/05 10:16:29;;;;;;;5.30;3.10;;;;;;;;;;5067556;28;20056;-62
2023/06/05 10:18:56;;;;;;;4.55;2.70;;;;;;;;;;5068467;28;20358;-62
2023/06/05 10:21:24;;;;;;;3.97;2.50;;;;;;;;;;5069392;28;20040;-62
2023/06/05 10:23:51;;;;;;;4.05;2.80;;;;;;;;;;5068566;28;20056;-62
2023/06/05 10:26:27;;;;;;;5.53;3.53;;;;;;;;;;5071872;28;20053;-62
2023/06/05 10:29:01;;;;;;;3.72;2.95;;;;;;;;;;5065491;28;20044;-61
2023/06/05 10:31:43;;;;;;;4.95;2.95;;;16.10;99.90;;;;;;5098966;28;20040;-62
2023/06/05 10:34:34;;;;;;;4.80;2.30;;;17.10;99.90;;;;;;5068487;28;20193;-62
2023/06/05 10:37:13;;;;;;;7.30;3.13;;;17.10;99.90;;;;;;5074276;28;20132;-63
2023/06/05 10:39:40;;;;;;;4.78;3.05;;;17.10;99.90;;;;;;5072745;28;20044;-63
2023/06/05 10:42:06;;;;;;;4.65;3.10;;;17.10;99.90;;;;;;5069399;28;20421;-61
2023/06/05 10:44:40;;;;;;;7.25;2.42;;;17.20;99.90;;;;;;5067868;28;20037;-62
2023/06/05 10:47:31;;;;;;;4.25;2.30;;;17.20;99.90;;;;;;5098051;27;20045;-62
2023/06/05 10:50:16;;;;;;;4.45;2.90;;;17.30;99.90;;;;;;5065266;28;20047;-62
2023/06/05 10:52:42;;;;;;;7.28;3.30;;;17.30;99.90;;;;;;5062385;28;20117;-62
2023/06/05 10:55:09;;;;;;;5.00;2.80;;;17.30;99.90;;;;;;5073478;28;20066;-62
2023/06/05 10:58:16;;;;;;;7.32;4.00;;;17.30;99.90;;;;;;5071277;28;20044;-62
2023/06/05 11:01:17;;;;;;;6.43;3.20;;;17.30;99.90;;;;;;5062449;28;20116;-62
2023/06/05 11:03:57;;;;;;;6.75;3.17;;;17.30;99.90;;;;;;5067509;28;20039;-62
2023/06/05 11:06:23;;;;;;;5.45;3.17;;;17.20;99.90;;;;;;5064766;28;20040;-62
2023/06/05 11:09:09;;;;;;;5.50;3.65;;;17.30;99.90;;;;;;5067759;28;20496;-62
2023/06/05 11:11:54;;;;;;;4.45;3.30;;;17.20;99.90;;;;;;5070569;28;20075;-63
2023/06/05 11:14:20;;;;;;;5.10;3.30;;;17.10;99.90;;;;;;5068928;28;20124;-62
2023/06/05 11:16:46;;;;;;;7.60;3.78;;;17.20;99.90;;;;;;5098120;28;20132;-64
2023/06/05 11:19:22;;;;;;;4.55;3.10;;;17.20;99.90;;;;;;5067832;28;20174;-62
2023/06/05 11:22:02;;;;;;;3.67;2.65;;;17.20;99.90;;;;;;5068984;28;20071;-62
2023/06/05 11:24:28;;;;;;;4.18;3.00;;;17.30;99.90;;;;;;5085905;28;20085;-64
2023/06/05 11:26:54;;;;;;;7.75;3.10;;;17.40;99.90;;;;;;5067669;28;20055;-62
2023/06/05 11:29:22;;;;;;;6.22;3.63;;;17.40;99.90;;;;;;5068097;28;20051;-63
2023/06/05 11:31:48;;;;;;;5.90;4.53;;;17.50;99.90;;;;;;5067294;28;20064;-62
2023/06/05 11:34:15;;;;;;;4.70;2.92;;;17.50;99.90;;;;;;5098805;28;20128;-62
2023/06/05 11:36:41;;;;;;;5.15;2.85;;;17.50;99.90;;;;;;5065471;28;20348;-62
2023/06/05 11:39:07;;;;;;;3.50;2.70;;;17.60;99.90;;;;;;5069627;28;20520;-62
2023/06/05 11:41:34;;;;;;;4.63;2.35;;;;;;;;;;5059909;28;20059;-62
2023/06/05 11:44:00;;;;;;;6.82;3.00;;;;;;;;;;5071214;28;20048;-62
2023/06/05 11:46:37;;;;;;;8.43;3.33;;;;;;;;;;5064187;28;20051;-62
2023/06/05 11:49:04;;;;;;;4.38;2.97;;;;;;;;;;5067740;28;20116;-62
2023/06/05 11:51:37;;;;;;;4.43;2.42;;;;;;;;;;5071859;28;20172;-62
2023/06/05 11:54:05;;;;;;;4.13;2.33;;;;;;;;;;5068743;28;20071;-62
2023/06/05 11:56:32;;;;;;;3.85;2.70;;;;;;;;;;5069477;28;20124;-62
2023/06/05 11:58:59;;;;;;;4.70;2.42;;;;;;;;;;5069083;28;20064;-62
2023/06/05 12:01:31;;;;;;;9.05;2.90;;;;;;;;;;5054115;28;20043;-63
2023/06/05 12:04:07;;;;;;;4.05;2.30;;;;;;;;;;5067693;28;20524;-63
2023/06/05 12:06:34;;;;;;;4.03;2.55;;;;;;;;;;5051604;28;20360;-62
2023/06/05 12:09:10;;;;;;;6.18;3.40;;;;;;;;;;5074216;28;20043;-62
2023/06/05 12:11:37;;;;;;;5.15;3.25;;;17.60;99.90;;;;;;5065879;28;20443;-62
2023/06/05 12:14:03;;;;;;;5.97;3.15;;;18.10;99.90;;;;;;5067234;28;20060;-62
2023/06/05 12:16:39;;;;;;;5.72;3.15;;;;;;;;;;5079025;28;20082;-62
2023/06/05 12:19:16;;;;;;;5.40;3.85;;;;;;;;;;5079936;28;20108;-62
2023/06/05 12:21:47;;;;;;;4.72;2.88;;;;;;;;;;5064754;28;20044;-62
2023/06/05 12:24:14;;;;;;;7.75;3.33;;;;;;;;;;5072745;28;20446;-62
2023/06/05 12:26:53;;;;;;;7.25;3.55;;;;;;;;;;5066638;28;20052;-62
2023/06/05 12:29:23;;;;;;;6.85;4.20;;;;;;;;;;5079308;28;20041;-62
2023/06/05 12:31:49;;;;;;;26.83;5.22;;;;;;;;;;5068020;28;20115;-62
2023/06/05 12:34:16;;;;;;;6.70;3.75;;;;;;;;;;5067471;28;20044;-62
2023/06/05 12:36:42;;;;;;;6.47;4.05;;;;;;;;;;5066179;28;20109;-62
2023/06/05 12:39:12;;;;;;;6.07;3.85;;;;;;;;;;5070679;28;20522;-62
2023/06/05 12:41:42;;;;;;;6.15;3.45;;;;;;;;;;5064433;28;20032;-62
2023/06/05 12:44:08;;;;;;;5.78;4.00;;;;;;;;;;5064717;28;20060;-62
2023/06/05 12:46:35;;;;;;;8.05;5.57;;;;;;;;;;5072457;28;20051;-60
2023/06/05 12:49:05;;;;;;;8.95;5.53;;;;;;;;;;5070659;28;20521;-60
2023/06/05 12:51:32;;;;;;;7.10;4.93;;;;;;;;;;5068373;28;20040;-60
2023/06/05 12:53:58;;;;;;;7.80;4.55;;;;;;;;;;5054510;28;20048;-60
2023/06/05 12:56:26;;;;;;;9.85;4.18;;;;;;;;;;5069629;28;20037;-60
2023/06/05 12:58:54;;;;;;;9.82;4.93;;;;;;;;;;5069594;28;20120;-60
2023/06/05 13:01:21;;;;;;;8.23;4.82;;;;;;;;;;5068092;28;20153;-60
2023/06/05 13:03:47;;;;;;;6.95;4.43;;;;;;;;;;5065862;28;20095;-60
2023/06/05 13:06:13;;;;;;;8.23;4.75;;;;;;;;;;5069770;28;20037;-63
2023/06/05 13:08:39;;;;;;;8.43;5.82;;;;;;;;;;5069581;28;20364;-61
2023/06/05 13:11:05;;;;;;;6.72;4.85;;;;;;;;;;5067681;28;20115;-61
2023/06/05 13:13:32;;;;;;;7.63;5.03;;;;;;;;;;5071344;28;20082;-61
2023/06/05 13:16:00;;;;;;;6.68;4.70;;;;;;;;;;5070257;28;20126;-61
2023/06/05 13:18:26;;;;;;;6.72;4.18;;;;;;;;;;5040903;28;20159;-62
2023/06/05 13:20:52;;;;;;;5.07;3.45;;;;;;;;;;5066353;28;20043;-61
2023/06/05 13:23:18;;;;;;;6.25;4.43;;;;;;;;;;5070276;28;20043;-61
2023/06/05 13:25:45;;;;;;;7.38;4.82;;;;;;;;;;5053779;28;20044;-61
2023/06/05 13:28:11;;;;;;;6.22;4.03;;;;;;;;;;5076807;28;20113;-61
2023/06/05 13:30:37;;;;;;;8.02;4.75;;;;;;;;;;5076488;28;20055;-61
2023/06/05 13:33:03;;;;;;;6.80;3.92;;;;;;;;;;5071473;28;20521;-61
2023/06/05 13:35:29;;;;;;;9.88;5.53;;;;;;;;;;5069840;28;20059;-61
2023/06/05 13:37:55;;;;;;;8.15;4.35;;;;;;;;;;5058913;28;20048;-61
2023/06/05 13:40:21;;;;;;;8.48;5.35;;;;;;;;;;5060136;28;20512;-61
2023/06/05 13:42:50;;;;;;;7.90;4.70;;;;;;;;;;5064155;28;20132;-61
2023/06/05 13:45:16;;;;;;;6.03;4.22;;;;;;;;;;5069763;28;20158;-61
2023/06/05 13:47:43;;;;;;;10.32;4.85;;;;;;;;;;5065070;28;20480;-61
2023/06/05 13:50:09;;;;;;;7.25;4.20;;;;;;;;;;5073006;28;20049;-61
2023/06/05 13:52:35;;;;;;;9.18;5.13;;;;;;;;;;5069272;28;20051;-61
2023/06/05 13:55:01;;;;;;;7.00;5.15;;;;;;;;;;5067820;28;20259;-62
2023/06/05 13:57:28;;;;;;;6.57;4.68;;;;;;;;;;5072560;28;20040;-61
2023/06/05 13:59:55;;;;;;;7.45;5.68;;;;;;;;;;5069506;28;20117;-62
2023/06/05 14:02:21;;;;;;;6.05;4.43;;;;;;;;;;5071392;28;20484;-62
2023/06/05 14:04:47;;;;;;;10.52;4.90;;;;;;;;;;5071193;28;20036;-62
2023/06/05 14:07:14;;;;;;;7.57;5.03;;;;;;;;;;5068731;28;20393;-62
2023/06/05 14:09:41;;;;;;;7.95;5.30;;;;;;;;;;5058221;28;20055;-61
2023/06/05 14:12:09;;;;;;;6.88;4.90;;;;;;;;;;5068231;28;20048;-62
2023/06/05 14:14:35;;;;;;;7.20;4.15;;;;;;;;;;5068705;28;20056;-62
2023/06/05 14:17:02;;;;;;;7.40;4.47;;;;;;;;;;5069475;28;20048;-61
2023/06/05 14:19:28;;;;;;;7.82;5.28;;;;;;;;;;5071808;28;20108;-61
2023/06/05 14:21:55;;;;;;;8.50;5.22;;;;;;;;;;5071762;28;20040;-61
2023/06/05 14:24:21;;;;;;;6.80;4.60;;;;;;;;;;5068519;28;20127;-62
2023/06/05 14:26:48;;;;;;;7.50;4.88;;;;;;;;;;5062139;28;20537;-61
2023/06/05 14:29:14;;;;;;;9.57;6.80;;;;;;;;;;5071957;28;20029;-61
2023/06/05 14:31:40;;;;;;;6.10;4.20;;;;;;;;;;5101798;27;20480;-61
2023/06/05 14:34:06;;;;;;;8.05;5.18;;;;;;;;;;5112695;27;20190;-61